Terminal Aerodrome Forecast
Issued by NWS Wakefield, VA

Home | Current Version | Previous Version | Text Only | Print | Product List | Glossary On
Versions: 1 2 3 4 5 6 7 8 9 10 11 12 13 14 15 16 17 18 19 20 21 22 23 24
000
FTUS41 KAKQ 252300
TAFORF
TAF
KORF 252330Z 2600/2624 19005KT P6SM SCT250
     FM260600 13004KT P6SM BKN120 OVC250
     FM261500 04008KT P6SM SCT050 OVC120
     FM262100 35010G18KT 4SM -RA BR OVC015=

USA.gov is the U.S. government's official web portal to all federal, state and local government web resources and services.